createdAt,value
2023-05-19T10:04:06.290Z,100422.31
2023-05-19T10:07:00.291Z,100414.09
2023-05-19T10:09:40.141Z,100418.06
2023-05-19T10:12:19.066Z,100417.50
2023-05-19T10:15:11.967Z,100406.94
2023-05-19T10:17:53.292Z,100417.31
2023-05-19T10:20:34.926Z,100412.88
2023-05-19T10:23:30.641Z,100410.06
2023-05-19T10:26:17.209Z,100409.34
2023-05-19T10:29:06.044Z,100402.09
2023-05-19T10:31:44.063Z,100408.16
2023-05-19T10:35:11.637Z,100401.50
2023-05-19T10:37:59.993Z,100398.22
2023-05-19T10:41:16.690Z,100403.53
2023-05-19T10:44:23.931Z,100399.84
2023-05-19T10:47:05.549Z,100397.44
2023-05-19T10:49:45.231Z,100388.00
2023-05-19T10:52:34.593Z,100396.34
2023-05-19T10:55:41.527Z,100393.53
2023-05-19T10:58:16.086Z,100386.50
2023-05-19T11:01:11.912Z,100382.00
2023-05-19T11:04:12.486Z,100386.41
2023-05-19T11:07:01.672Z,100375.38
2023-05-19T11:09:43.055Z,100376.22
2023-05-19T11:12:27.034Z,100372.84
2023-05-19T11:15:10.568Z,100370.88
2023-05-19T11:17:56.670Z,100363.88
2023-05-19T11:20:47.620Z,100360.13
2023-05-19T11:23:28.535Z,100375.22
2023-05-19T11:26:16.041Z,100360.56
2023-05-19T11:29:08.005Z,100372.72
2023-05-19T11:31:50.947Z,100364.81
2023-05-19T11:34:38.926Z,100365.25
2023-05-19T11:37:23.813Z,100372.13
2023-05-19T11:40:07.620Z,100362.53
2023-05-19T11:42:45.320Z,100361.97
2023-05-19T11:45:29.682Z,100354.47
2023-05-19T11:48:24.114Z,100356.91
2023-05-19T11:51:26.403Z,100358.41
2023-05-19T11:54:00.705Z,100359.63
2023-05-19T11:57:25.141Z,100353.41
2023-05-19T12:00:31.162Z,100353.81
2023-05-19T12:03:21.308Z,100345.19
2023-05-19T12:06:17.294Z,100353.88
2023-05-19T12:09:15.107Z,100352.34
2023-05-19T12:12:14.971Z,100350.31
2023-05-19T12:15:02.572Z,100347.34
2023-05-19T12:17:46.597Z,100350.38
2023-05-19T12:20:27.311Z,100347.88
2023-05-19T12:23:11.606Z,100340.56
2023-05-19T12:25:51.903Z,100337.25
2023-05-19T12:28:52.034Z,100328.50
2023-05-19T12:31:31.223Z,100326.53
2023-05-19T12:34:12.018Z,100321.75
2023-05-19T12:37:02.642Z,100330.81
2023-05-19T12:39:44.827Z,100324.31
2023-05-19T12:42:31.379Z,100319.72
2023-05-19T18:51:48.968Z,100257.88
2023-05-19T18:54:34.023Z,100261.00
2023-05-19T18:57:26.675Z,100263.75
2023-05-19T19:00:08.040Z,100265.38
2023-05-19T19:02:52.317Z,100265.16
2023-05-19T19:05:42.248Z,100265.03
2023-05-19T19:08:36.470Z,100262.84
2023-05-19T19:11:21.477Z,100262.56
2023-05-19T19:14:04.717Z,100260.72
2023-05-19T19:16:56.295Z,100263.63
2023-05-19T19:22:53.260Z,100265.66
2023-05-19T19:25:47.837Z,100268.56
2023-05-19T19:28:36.583Z,100258.16
2023-05-19T19:31:36.982Z,100269.69
2023-05-19T19:34:21.430Z,100278.94
2023-05-19T19:37:03.248Z,100272.72
2023-05-19T19:39:46.774Z,100278.72
2023-05-19T19:42:40.592Z,100283.44
2023-05-19T19:45:12.563Z,100286.34
2023-05-19T19:48:06.115Z,100286.03
2023-05-19T19:50:48.012Z,100286.03
2023-05-19T19:53:28.989Z,100288.09
2023-05-19T19:56:21.273Z,100290.75
2023-05-19T19:59:17.129Z,100293.22
2023-05-19T20:02:04.031Z,100299.69
2023-05-19T20:04:39.495Z,100307.59
2023-05-19T20:07:19.695Z,100300.75
2023-05-19T20:10:01.420Z,100305.56
2023-05-19T20:12:39.443Z,100306.44
2023-05-19T20:15:21.876Z,100307.59
2023-05-19T20:18:06.837Z,100308.97
2023-05-19T20:20:52.990Z,100303.25
2023-05-19T20:23:36.657Z,100302.13
2023-05-19T20:26:20.133Z,100300.66
2023-05-19T20:29:12.356Z,100305.56
2023-05-19T20:31:58.834Z,100300.94
2023-05-19T20:34:41.852Z,100297.25
2023-05-19T20:37:22.213Z,100295.78
2023-05-19T20:40:01.312Z,100292.09
2023-05-19T20:42:49.224Z,100285.28
2023-05-19T20:45:25.891Z,100287.75
2023-05-19T20:48:19.502Z,100289.44
2023-05-19T20:51:01.438Z,100290.75
2023-05-19T20:53:49.831Z,100288.47
2023-05-19T20:56:36.821Z,100289.28
2023-05-19T20:59:41.184Z,100296.34
2023-05-19T21:02:30.652Z,100293.66
2023-05-19T21:05:13.958Z,100289.38
2023-05-19T21:10:50.999Z,100292.59
2023-05-19T21:13:33.980Z,100287.81
2023-05-19T21:16:20.484Z,100292.00
2023-05-19T21:18:52.528Z,100293.19
2023-05-19T21:21:36.206Z,100292.88
2023-05-19T21:24:18.337Z,100289.06
2023-05-19T21:27:02.037Z,100288.13
2023-05-19T21:29:45.670Z,100284.81
2023-05-19T21:32:33.541Z,100291.69
2023-05-19T21:35:25.671Z,100292.97
2023-05-19T21:38:22.770Z,100296.09
2023-05-19T21:41:06.934Z,100291.00
2023-05-19T21:44:01.654Z,100286.56
2023-05-19T21:46:50.436Z,100285.44
2023-05-19T21:49:29.589Z,100292.75
2023-05-19T21:52:06.919Z,100289.78
2023-05-19T21:55:02.300Z,100295.78
2023-05-19T21:57:51.256Z,100295.47
2023-05-19T22:00:36.859Z,100295.19
2023-05-19T22:03:18.486Z,100298.91
2023-05-19T22:06:04.164Z,100302.59
2023-05-19T22:08:53.064Z,100303.00
2023-05-19T22:11:30.967Z,100300.34
2023-05-19T22:14:11.598Z,100297.84
2023-05-19T22:16:53.116Z,100289.63
2023-05-19T22:19:34.868Z,100282.06
2023-05-19T22:22:15.961Z,100274.22
2023-05-19T22:24:59.951Z,100264.00
2023-05-19T22:27:37.874Z,100272.88
2023-05-19T22:30:21.810Z,100271.72
2023-05-19T22:32:59.885Z,100274.22
2023-05-19T22:35:43.709Z,100273.03
2023-05-19T22:38:24.115Z,100273.78
2023-05-19T22:41:04.567Z,100272.41
2023-05-19T22:43:45.432Z,100266.78
2023-05-19T22:46:26.625Z,100264.91
2023-05-19T22:49:04.343Z,100250.00
2023-05-19T22:51:59.775Z,100244.22
2023-05-19T22:54:42.547Z,100236.28
2023-05-19T22:57:20.457Z,100245.50
2023-05-19T23:00:04.540Z,100243.28
2023-05-19T23:02:44.669Z,100245.59
2023-05-19T23:05:28.094Z,100241.06
2023-05-19T23:08:06.960Z,100230.81
2023-05-19T23:10:50.236Z,100231.91
2023-05-19T23:13:40.355Z,100235.00
2023-05-19T23:16:34.308Z,100228.56
2023-05-19T23:19:34.077Z,100240.38
2023-05-19T23:22:11.948Z,100244.72
2023-05-19T23:24:47.377Z,100240.84
2023-05-19T23:27:25.052Z,100236.00
2023-05-19T23:30:06.275Z,100235.66
2023-05-19T23:33:03.825Z,100245.50
2023-05-19T23:35:48.467Z,100247.84
2023-05-19T23:38:29.866Z,100244.91
2023-05-19T23:41:23.094Z,100247.16
2023-05-19T23:44:11.759Z,100235.22
2023-05-19T23:46:52.630Z,100230.56
2023-05-19T23:49:43.926Z,100231.53
2023-05-19T23:52:29.925Z,100232.28
2023-05-19T23:55:14.631Z,100222.84
2023-05-19T23:57:58.612Z,100222.25
